首页
METAR-TAF:

METAR-TAF

机场 :

Golden Triangle Regional Airport

哥伦布/ West Point / 斯塔克維爾, 密西西比州, 美国

纬度: 33-27N, 经度: 088-35W, 海拔: 80米

当前天气观测

该预报发布于20分钟前的23:26 UTC
风速5节,风向
温度 19°C
湿度 88%
气压 1012 hPa
能見度: 16.1公里
散云层高于2700英尺
阴天层高于3300英尺

METAR: KGTR 092326Z 17005KT 10SM SCT027 OVC033 19/17 A2988 RMK AO2

时间: 17:46 (23:46 UTC)

预报

该预报发布于6小时和2分钟前的17:44 UTC
预报有效从09日的 18点(UTC)到 10日的 18点(UTC)
风速13节,风向,有时为20节阵风
能見度: 10公里
阴天层高于2500英尺
从 10日的 0300点(UTC)
风速9节,风向
能見度: 10公里
阴天层高于3500英尺
附近有阵雨
从 10日的 0800点(UTC)
风速7节,风向西转西北
能見度: 8.0公里
阴天层高于1500英尺
小雨
从 10日的 1000点(UTC)
风速15节,风向北转西北,有时为20节阵风
能見度: 8.0公里
阴天层高于700英尺
小雨

TAF: KGTR 091744Z 0918/1018 17013G20KT P6SM OVC025 FM100300 19009KT P6SM VCSH OVC035 FM100800 30007KT 5SM -RA OVC015 FM101000 34015G20KT 5SM -RA OVC007

超过4000个机场的气象观测和天气预报(METAR&TAF报告)。

可查询的气象台以黄色和红色小点在地图上表示。

将鼠标移到小点上方,可查看气象台名称。

然后点击查看天气观测和预报。

如需切换地图:点击带黑十字的绿色按钮放大地图;点击带横线的绿色按钮缩小地图;或者点击绿色箭头查看邻近地区的地图。


METAR-TAF: